Time;durP1;ratioP1;P1;durP2;ratioP2;P2;SDS_P1;SDS_P2;PMS_P1;PMS_P2;Temp;Humidity;BMP_temperature;BMP_pressure;BME280_temperature;BME280_humidity;BME280_pressure;Samples;Min_cycle;Max_cycle;Signal;HPM_P1;HPM_P2
2022/02/24 00:01:04;;;;;;;12.27;5.70;;;;;;;-146.05;100.00;59461.22;5059641;28;20045;-86
2022/02/24 00:03:34;;;;;;;12.00;4.78;;;;;;;-146.05;100.00;59461.22;5059361;28;20056;-87
2022/02/24 00:06:02;;;;;;;6.45;4.03;;;;;;;-146.05;100.00;59461.22;5058568;28;20418;-84
2022/02/24 00:08:29;;;;;;;10.82;4.53;;;;;;;-146.05;100.00;59461.22;5058185;28;20052;-87
2022/02/24 00:10:58;;;;;;;11.93;5.18;;;;;;;-146.05;100.00;59461.22;5058728;28;20053;-85
2022/02/24 00:13:26;;;;;;;8.75;3.90;;;;;;;-146.05;100.00;59461.22;5059265;28;20076;-83
2022/02/24 00:15:53;;;;;;;13.35;5.30;;;;;;;-146.05;100.00;59461.22;5059024;28;20041;-81
2022/02/24 00:18:21;;;;;;;12.80;4.70;;;;;;;-146.05;100.00;59461.22;5058823;28;20418;-87
2022/02/24 00:20:48;;;;;;;7.35;3.05;;;;;;;-146.05;100.00;59461.22;5058326;28;20442;-80
2022/02/24 00:23:16;;;;;;;8.25;3.25;;;;;;;-146.05;100.00;59461.22;5057836;28;20049;-89
2022/02/24 00:25:43;;;;;;;9.45;2.78;;;;;;;-146.05;100.00;59461.22;5058670;28;20505;-84
2022/02/24 00:28:12;;;;;;;8.57;3.85;;;;;;;-146.05;100.00;59461.22;5057336;28;20422;-81
2022/02/24 00:30:40;;;;;;;7.07;3.20;;;;;;;-146.05;100.00;59461.22;5056858;28;20041;-85
2022/02/24 00:33:08;;;;;;;7.88;3.08;;;;;;;-146.05;100.00;59461.22;5057442;28;20068;-88
2022/02/24 00:35:36;;;;;;;7.50;3.22;;;;;;;-146.05;100.00;59461.22;5059573;28;20048;-88
2022/02/24 00:38:04;;;;;;;9.18;2.95;;;;;;;-146.05;100.00;59461.22;5059380;28;20060;-87
2022/02/24 00:40:31;;;;;;;7.50;3.25;;;;;;;-146.05;100.00;59461.22;5059625;28;20049;-87
2022/02/24 00:42:59;;;;;;;9.65;3.28;;;;;;;-146.05;100.00;59461.22;5060150;28;20068;-82
2022/02/24 00:45:27;;;;;;;6.40;2.85;;;;;;;-146.05;100.00;59461.22;5060579;28;20057;-86
2022/02/24 00:47:55;;;;;;;6.72;2.80;;;;;;;-146.05;100.00;59461.22;5060633;28;20059;-87
2022/02/24 00:50:23;;;;;;;6.50;3.45;;;;;;;-146.05;100.00;59461.22;5060926;28;20060;-88
2022/02/24 00:52:50;;;;;;;4.50;3.00;;;;;;;-146.05;100.00;59461.22;5060918;28;20055;-87
2022/02/24 00:55:18;;;;;;;3.55;2.35;;;;;;;-146.05;100.00;59461.22;5060636;28;20495;-83
2022/02/24 00:57:45;;;;;;;4.20;2.83;;;;;;;-146.05;100.00;59461.22;5061736;28;20059;-83
2022/02/24 01:00:16;;;;;;;9.15;3.45;;;;;;;-146.05;100.00;59461.22;5062887;28;20144;-89
2022/02/24 01:02:45;;;;;;;8.70;3.35;;;;;;;-146.05;100.00;59461.22;5062927;28;20053;-87
2022/02/24 01:05:12;;;;;;;9.13;3.22;;;;;;;-146.05;100.00;59461.22;5060451;28;20053;-89
2022/02/24 01:07:40;;;;;;;7.45;3.80;;;;;;;-146.05;100.00;59461.22;5059855;28;20045;-85
2022/02/24 01:10:09;;;;;;;7.78;3.10;;;;;;;-146.05;100.00;59461.22;5059304;28;20423;-85
2022/02/24 01:12:37;;;;;;;9.90;3.20;;;;;;;-146.05;100.00;59461.22;5060985;28;20056;-89
2022/02/24 01:15:08;;;;;;;6.63;2.92;;;;;;;-146.05;100.00;59461.22;5059006;28;20060;-84
2022/02/24 01:17:37;;;;;;;5.63;2.85;;;;;;;-146.05;100.00;59461.22;5060612;28;20049;-89
2022/02/24 01:20:08;;;;;;;5.43;2.65;;;;;;;-146.05;100.00;59461.22;5062683;28;20075;-86
2022/02/24 01:22:36;;;;;;;5.18;2.53;;;;;;;-146.05;100.00;59461.22;5061032;28;20434;-88
2022/02/24 01:25:05;;;;;;;3.50;2.30;;;;;;;-146.05;100.00;59461.22;5058786;28;20049;-89
2022/02/24 01:27:32;;;;;;;6.25;2.63;;;;;;;-146.05;100.00;59461.22;5059424;28;20072;-84
2022/02/24 01:30:00;;;;;;;5.13;2.63;;;;;;;-146.05;100.00;59461.22;5059486;28;20055;-88
2022/02/24 01:32:27;;;;;;;4.47;2.72;;;;;;;-146.05;100.00;59461.22;5059785;28;20056;-86
2022/02/24 01:34:58;;;;;;;7.68;2.80;;;;;;;-146.05;100.00;59461.22;5059734;28;20396;-86
2022/02/24 01:37:27;;;;;;;5.70;2.70;;;;;;;-146.05;100.00;59461.22;5059612;28;20044;-88
2022/02/24 01:39:55;;;;;;;5.82;2.70;;;;;;;-146.05;100.00;59461.22;5059257;28;20063;-86
2022/02/24 01:42:22;;;;;;;3.83;2.08;;;;;;;-146.05;100.00;59461.22;5060287;28;20435;-90
2022/02/24 01:44:50;;;;;;;6.65;3.03;;;;;;;-146.05;100.00;59461.22;5060848;28;20053;-89
2022/02/24 01:47:18;;;;;;;6.88;2.80;;;;;;;-146.05;100.00;59461.22;5061123;28;20056;-86
2022/02/24 01:49:46;;;;;;;5.22;2.45;;;;;;;-146.05;100.00;59461.22;5061669;28;20055;-88
2022/02/24 01:52:14;;;;;;;5.05;2.15;;;;;;;-146.05;100.00;59461.22;5060388;28;20045;-85
2022/02/24 01:54:43;;;;;;;5.70;2.47;;;;;;;-146.05;100.00;59461.22;5061531;28;20044;-83
2022/02/24 01:57:11;;;;;;;6.03;2.45;;;;;;;-146.05;100.00;59461.22;5060921;28;20041;-85
2022/02/24 01:59:39;;;;;;;7.40;3.15;;;;;;;-146.05;100.00;59461.22;5059965;28;20053;-85
2022/02/24 02:02:07;;;;;;;6.85;3.30;;;;;;;-146.05;100.00;59461.22;5059541;28;20052;-89
2022/02/24 02:04:37;;;;;;;7.60;2.78;;;;;;;-146.05;100.00;59461.22;5058773;28;20045;-85
2022/02/24 02:07:05;;;;;;;6.38;2.33;;;;;;;-146.05;100.00;59461.22;5057759;28;20399;-83
2022/02/24 02:09:34;;;;;;;7.57;2.00;;;;;;;-146.05;100.00;59461.22;5058850;28;20103;-86
2022/02/24 02:12:04;;;;;;;6.45;2.60;;;;;;;-146.05;100.00;59461.22;5073651;28;20068;-80
2022/02/24 02:14:37;;;;;;;7.30;2.35;;;;;;;-146.05;100.00;59461.22;5078017;28;20059;-78
2022/02/24 02:17:05;;;;;;;6.47;2.22;;;;;;;-146.05;100.00;59461.22;5067642;28;20059;-83
2022/02/24 02:19:36;;;;;;;6.15;2.63;;;;;;;-146.05;100.00;59461.22;5060278;28;20093;-87
2022/02/24 02:22:05;;;;;;;8.20;3.20;;;;;;;-146.05;100.00;59461.22;5060283;28;20052;-87
2022/02/24 02:24:37;;;;;;;6.45;2.85;;;;;;;-146.05;100.00;59461.22;5059190;28;20074;-84
2022/02/24 02:27:04;;;;;;;6.97;2.50;;;;;;;-146.05;100.00;59461.22;5059156;28;20041;-81
2022/02/24 02:29:32;;;;;;;4.10;2.30;;;;;;;-146.05;100.00;59461.22;5059768;28;20049;-88
2022/02/24 02:31:59;;;;;;;6.05;3.10;;;;;;;-146.05;100.00;59461.22;5058343;28;20064;-82
2022/02/24 02:34:27;;;;;;;7.40;4.32;;;;;;;-146.05;100.00;59461.22;5058244;28;20530;-80
2022/02/24 02:36:54;;;;;;;5.63;3.55;;;;;;;-146.05;100.00;59461.22;5057849;28;20045;-79
2022/02/24 02:39:23;;;;;;;5.53;3.35;;;;;;;-146.05;100.00;59461.22;5058115;28;20045;-85
2022/02/24 02:41:51;;;;;;;7.60;2.85;;;;;;;-146.05;100.00;59461.22;5056964;28;20049;-84
2022/02/24 02:44:18;;;;;;;2.55;2.00;;;;;;;-146.05;100.00;59461.22;5055458;28;20055;-80
2022/02/24 02:46:46;;;;;;;6.07;2.45;;;;;;;-146.05;100.00;59461.22;5054366;28;20049;-84
2022/02/24 02:49:13;;;;;;;4.70;1.98;;;;;;;-146.05;100.00;59461.22;5057901;28;20516;-84
2022/02/24 02:51:43;;;;;;;5.82;2.20;;;;;;;-146.05;100.00;59461.22;5057824;28;20049;-87
2022/02/24 02:54:11;;;;;;;3.97;2.05;;;;;;;-146.05;100.00;59461.22;5055616;28;20049;-88
2022/02/24 02:56:40;;;;;;;8.25;2.40;;;;;;;-146.05;100.00;59461.22;5054527;28;20045;-88
2022/02/24 02:59:08;;;;;;;3.40;2.10;;;;;;;-146.05;100.00;59461.22;5056244;28;20506;-82
2022/02/24 03:01:36;;;;;;;3.58;1.98;;;;;;;-146.05;100.00;59461.22;5056312;28;20071;-86
2022/02/24 03:04:04;;;;;;;4.30;2.22;;;;;;;-146.05;100.00;59461.22;5056569;28;20421;-86
2022/02/24 03:06:32;;;;;;;5.50;2.70;;;;;;;-146.05;100.00;59461.22;5055528;28;20194;-83
2022/02/24 03:09:00;;;;;;;5.07;2.53;;;;;;;-146.05;100.00;59461.22;5053760;28;20487;-81
2022/02/24 03:11:27;;;;;;;2.47;1.90;;;;;;;-146.05;100.00;59461.22;5054612;28;20049;-80
2022/02/24 03:13:56;;;;;;;8.35;2.65;;;;;;;-146.05;100.00;59461.22;5053227;28;20056;-79
2022/02/24 03:16:23;;;;;;;4.07;2.08;;;;;;;-146.05;100.00;59461.22;5053414;28;20056;-81
2022/02/24 03:18:51;;;;;;;4.18;1.73;;;;;;;-146.05;100.00;59461.22;5055062;28;20079;-89
2022/02/24 03:21:19;;;;;;;5.40;1.90;;;;;;;-146.05;100.00;59461.22;5056937;28;20049;-85
2022/02/24 03:23:46;;;;;;;4.70;1.90;;;;;;;-146.05;100.00;59461.22;5057323;28;20041;-82
2022/02/24 03:26:14;;;;;;;4.78;1.92;;;;;;;-146.05;100.00;59461.22;5057592;28;20056;-89
2022/02/24 03:28:41;;;;;;;4.55;2.00;;;;;;;-146.05;100.00;59461.22;5057392;28;20053;-88
2022/02/24 03:31:10;;;;;;;4.45;1.70;;;;;;;-146.05;100.00;59461.22;5057929;28;20495;-84
2022/02/24 03:33:38;;;;;;;4.97;2.58;;;;;;;-146.05;100.00;59461.22;5058374;28;20126;-81
2022/02/24 03:36:06;;;;;;;5.60;2.35;;;;;;;-146.05;100.00;59461.22;5057467;28;20525;-85
2022/02/24 03:38:34;;;;;;;3.65;2.13;;;;;;;-146.05;100.00;59461.22;5059815;28;20049;-87
2022/02/24 03:41:01;;;;;;;3.83;1.98;;;;;;;-146.05;100.00;59461.22;5058928;28;20577;-87
2022/02/24 03:43:29;;;;;;;4.68;2.05;;;;;;;-146.05;100.00;59461.22;5061412;28;20049;-84
2022/02/24 03:45:58;;;;;;;3.33;1.92;;;;;;;-146.05;100.00;59461.22;5060595;28;20041;-89
2022/02/24 03:48:27;;;;;;;9.40;3.72;;;;;;;-146.05;100.00;59461.22;5060078;28;20044;-86
2022/02/24 03:50:54;;;;;;;4.63;2.47;;;;;;;-146.05;100.00;59461.22;5059827;28;20059;-90
2022/02/24 03:53:22;;;;;;;3.53;2.30;;;;;;;-146.05;100.00;59461.22;5060177;28;20498;-88
2022/02/24 03:55:50;;;;;;;3.33;2.13;;;;;;;-146.05;100.00;59461.22;5059943;28;20053;-89
2022/02/24 03:58:17;;;;;;;3.85;2.30;;;;;;;-146.05;100.00;59461.22;5060467;28;20053;-87
2022/02/24 04:00:45;;;;;;;3.78;2.10;;;;;;;-146.05;100.00;59461.22;5059820;28;20057;-88
2022/02/24 04:03:13;;;;;;;6.35;2.47;;;;;;;-146.05;100.00;59461.22;5059796;28;20052;-87
2022/02/24 04:05:42;;;;;;;5.75;1.95;;;;;;;-146.05;100.00;59461.22;5059499;28;20041;-84
2022/02/24 04:08:09;;;;;;;4.57;2.00;;;;;;;-146.05;100.00;59461.22;5059688;28;20057;-82
2022/02/24 04:10:37;;;;;;;6.50;3.15;;;;;;;-146.05;100.00;59461.22;5058534;28;20049;-87
2022/02/24 04:13:06;;;;;;;4.88;2.08;;;;;;;-146.05;100.00;59461.22;5058463;28;20055;-89
2022/02/24 04:15:36;;;;;;;7.00;2.70;;;;;;;-146.05;100.00;59461.22;5058232;28;20052;-88
2022/02/24 04:18:04;;;;;;;5.18;2.50;;;;;;;-146.05;100.00;59461.22;5058598;28;20417;-88
2022/02/24 04:20:31;;;;;;;4.03;2.42;;;;;;;-146.05;100.00;59461.22;5057490;28;20049;-83
2022/02/24 04:23:00;;;;;;;8.30;2.75;;;;;;;-146.05;100.00;59461.22;5057697;28;20053;-80
2022/02/24 04:25:28;;;;;;;5.38;2.42;;;;;;;-146.05;100.00;59461.22;5057641;28;20481;-82
2022/02/24 04:27:55;;;;;;;3.40;1.92;;;;;;;-146.05;100.00;59461.22;5058060;28;20147;-84
2022/02/24 04:30:23;;;;;;;3.35;2.28;;;;;;;-146.05;100.00;59461.22;5057452;28;20132;-89
2022/02/24 04:32:51;;;;;;;6.03;2.72;;;;;;;-146.05;100.00;59461.22;5057343;28;20139;-86
2022/02/24 04:35:18;;;;;;;3.70;2.20;;;;;;;-146.05;100.00;59461.22;5058035;28;20140;-85
2022/02/24 04:37:46;;;;;;;4.60;2.47;;;;;;;-146.05;100.00;59461.22;5057390;28;20052;-85
2022/02/24 04:40:16;;;;;;;5.70;2.63;;;;;;;-146.05;100.00;59461.22;5057295;28;20051;-80
2022/02/24 04:42:44;;;;;;;3.80;2.40;;;;;;;-146.05;100.00;59461.22;5060196;28;20045;-90
2022/02/24 04:45:14;;;;;;;6.43;2.53;;;;;;;-146.05;100.00;59461.22;5059106;28;20045;-90
2022/02/24 04:47:41;;;;;;;4.07;2.72;;;;;;;-146.05;100.00;59461.22;5060157;28;20049;-87
2022/02/24 04:50:10;;;;;;;7.28;3.67;;;;;;;-146.05;100.00;59461.22;5059961;28;20045;-86
2022/02/24 04:52:38;;;;;;;7.25;2.65;;;;;;;-146.05;100.00;59461.22;5060589;28;20084;-90
2022/02/24 04:55:08;;;;;;;8.23;3.80;;;;;;;-146.05;100.00;59461.22;5060404;28;20566;-88
2022/02/24 04:57:37;;;;;;;10.35;4.40;;;;;;;-146.05;100.00;59461.22;5060620;28;20060;-86
2022/02/24 05:00:06;;;;;;;8.63;4.18;;;;;;;-146.05;100.00;59461.22;5060598;28;20049;-90
2022/02/24 05:02:34;;;;;;;10.88;4.30;;;;;;;-146.05;100.00;59461.22;5060322;28;20128;-86
2022/02/24 05:05:02;;;;;;;14.38;5.25;;;;;;;-146.05;100.00;59461.22;5060324;28;20071;-89
2022/02/24 05:07:30;;;;;;;8.23;4.10;;;;;;;-146.05;100.00;59461.22;5059459;28;20045;-88
2022/02/24 05:09:59;;;;;;;8.88;3.20;;;;;;;-146.05;100.00;59461.22;5061880;28;20045;-88
2022/02/24 05:12:27;;;;;;;9.60;4.13;;;;;;;-146.05;100.00;59461.22;5060716;28;20080;-89
2022/02/24 05:14:56;;;;;;;6.28;3.53;;;;;;;-146.05;100.00;59461.22;5060098;28;20481;-89
2022/02/24 05:17:24;;;;;;;6.32;4.03;;;;;;;-146.05;100.00;59461.22;5059837;28;20045;-88
2022/02/24 05:19:51;;;;;;;9.13;5.22;;;;;;;-146.05;100.00;59461.22;5059638;28;20107;-88
2022/02/24 05:22:19;;;;;;;6.20;3.70;;;;;;;-146.05;100.00;59461.22;5060238;28;20103;-89
2022/02/24 05:24:46;;;;;;;16.50;4.18;;;;;;;-146.05;100.00;59461.22;5061322;28;20052;-89
2022/02/24 05:27:14;;;;;;;10.02;4.43;;;;;;;-146.05;100.00;59461.22;5059984;28;20106;-89
2022/02/24 05:29:42;;;;;;;6.20;3.60;;;;;;;-146.05;100.00;59461.22;5060379;28;20055;-87
2022/02/24 05:32:11;;;;;;;5.65;2.83;;;;;;;-146.05;100.00;59461.22;5068159;28;20073;-80
2022/02/24 05:34:38;;;;;;;7.20;3.13;;;;;;;-146.05;100.00;59461.22;5078854;28;20044;-79
2022/02/24 05:37:06;;;;;;;4.45;3.35;;;;;;;-146.05;100.00;59461.22;5078434;28;20156;-80
2022/02/24 05:39:34;;;;;;;6.32;3.38;;;;;;;-146.05;100.00;59461.22;5061383;28;20113;-90
2022/02/24 05:42:01;;;;;;;5.40;2.88;;;;;;;-146.05;100.00;59461.22;5060850;28;20136;-90
2022/02/24 05:44:29;;;;;;;7.40;3.30;;;;;;;-146.05;100.00;59461.22;5058805;28;20487;-88
2022/02/24 05:46:56;;;;;;;9.50;4.25;;;;;;;-146.05;100.00;59461.22;5057714;28;20116;-86
2022/02/24 05:49:25;;;;;;;5.50;3.15;;;;;;;-146.05;100.00;59461.22;5058357;28;20055;-87
2022/02/24 05:51:53;;;;;;;8.63;3.50;;;;;;;-146.05;100.00;59461.22;5058258;28;20131;-88
2022/02/24 05:54:20;;;;;;;4.93;3.05;;;;;;;-146.05;100.00;59461.22;5057811;28;20048;-90
2022/02/24 05:56:50;;;;;;;7.68;4.03;;;;;;;-146.05;100.00;59461.22;5050388;28;20095;-86
2022/02/24 05:59:22;;;;;;;6.95;4.18;;;;;;;-146.05;100.00;59461.22;5067784;28;20045;-84
2022/02/24 06:01:51;;;;;;;11.48;5.60;;;;;;;-146.05;100.00;59461.22;5073919;28;20056;-87
2022/02/24 06:04:20;;;;;;;13.65;6.72;;;;;;;-146.05;100.00;59461.22;5059620;28;20034;-85
2022/02/24 06:06:54;;;;;;;15.75;8.30;;;;;;;-146.05;100.00;59461.22;5055435;28;20049;-86
2022/02/24 06:09:26;;;;;;;15.70;5.70;;;;;;;-146.05;100.00;59461.22;5063873;28;20088;-85
2022/02/24 06:11:59;;;;;;;13.85;6.20;;;;;;;-146.05;100.00;59461.22;5075271;28;20052;-86
2022/02/24 06:14:37;;;;;;;12.38;5.53;;;;;;;-146.05;100.00;59461.22;5061655;28;20049;-88
2022/02/24 06:17:12;;;;;;;11.05;5.80;;;;;;;-146.05;100.00;59461.22;5055869;28;20052;-86
2022/02/24 06:19:45;;;;;;;12.18;5.93;;;;;;;-146.05;100.00;59461.22;5059133;28;20502;-88
2022/02/24 06:22:18;;;;;;;12.35;5.72;;;;;;;-146.05;100.00;59461.22;5052874;28;20041;-83
2022/02/24 06:24:45;;;;;;;10.10;5.13;;;;;;;-146.05;100.00;59461.22;5040256;28;20120;-83
2022/02/24 06:27:14;;;;;;;12.52;5.78;;;;;;;-146.05;100.00;59461.22;5039684;28;20045;-87
2022/02/24 06:29:42;;;;;;;11.32;5.57;;;;;;;-146.05;100.00;59461.22;5041752;28;20088;-91
2022/02/24 06:32:15;;;;;;;11.35;6.28;;;;;;;-146.05;100.00;59461.22;5058504;28;20053;-83
2022/02/24 06:34:46;;;;;;;10.82;6.03;;;;;;;-146.05;100.00;59461.22;5055962;28;20056;-85
2022/02/24 06:37:23;;;;;;;8.13;5.53;;;;;;;-146.05;100.00;59461.22;5056955;28;20076;-89
2022/02/24 06:39:53;;;;;;;13.65;6.25;;;;;;;-146.05;100.00;59461.22;5055489;28;20049;-87
2022/02/24 06:42:21;;;;;;;17.80;8.77;;;;;;;-146.05;100.00;59461.22;5055881;28;20045;-85
2022/02/24 06:44:48;;;;;;;23.27;9.52;;;;;;;-146.05;100.00;59461.22;5054746;28;20064;-86
2022/02/24 06:47:20;;;;;;;14.90;7.75;;;;;;;-146.05;100.00;59461.22;5053851;28;20551;-90
2022/02/24 06:49:53;;;;;;;16.48;6.40;;;;;;;-146.05;100.00;59461.22;5040186;28;20479;-88
2022/02/24 06:52:28;;;;;;;10.85;5.85;;;;;;;-146.05;100.00;59461.22;5054758;28;20084;-90
2022/02/24 06:54:59;;;;;;;9.02;5.70;;;;;;;-146.05;100.00;59461.22;5062149;28;20052;-90
2022/02/24 06:57:32;;;;;;;8.05;4.30;;;;;;;-146.05;100.00;59461.22;5061466;28;20060;-86
2022/02/24 07:00:10;;;;;;;5.95;4.80;;;;;;;-146.05;100.00;59461.22;5061774;28;20044;-88
2022/02/24 07:02:43;;;;;;;7.05;4.55;;;;;;;-146.05;100.00;59461.22;5062392;28;20071;-82
2022/02/24 07:05:37;;;;;;;7.80;4.63;;;;;;;-146.05;100.00;59461.22;5059815;28;20076;-90
2022/02/24 07:08:08;;;;;;;8.52;4.93;;;;;;;-146.05;100.00;59461.22;5059154;28;20049;-85
2022/02/24 07:14:16;;;;;;;7.47;5.43;;;;;;;-146.05;100.00;59461.22;4999902;28;20077;-90
2022/02/24 07:17:43;;;;;;;9.27;5.88;;;;;;;-146.05;100.00;59461.22;5007271;28;20054;-91
2022/02/24 07:20:15;;;;;;;11.38;6.00;;;;;;;-146.05;100.00;59461.22;4902494;29;20080;-91
2022/02/24 07:22:43;;;;;;;7.88;5.40;;;;;;;-146.05;100.00;59461.22;4910785;29;20091;-89
2022/02/24 07:25:13;;;;;;;9.57;4.55;;;;;;;-146.05;100.00;59461.22;5002343;28;20066;-92
2022/02/24 07:27:42;;;;;;;7.28;4.75;;;;;;;-146.05;100.00;59461.22;5004495;28;20050;-90
2022/02/24 07:30:11;;;;;;;9.43;5.53;;;;;;;-146.05;100.00;59461.22;5001227;28;20109;-89
2022/02/24 07:32:39;;;;;;;8.50;4.82;;;;;;;-146.05;100.00;59461.22;5002385;28;20069;-88
2022/02/24 07:35:08;;;;;;;7.78;5.13;;;;;;;-146.05;100.00;59461.22;5001891;28;20468;-90
2022/02/24 07:37:37;;;;;;;8.82;4.57;;;;;;;-146.05;100.00;59461.22;5000582;28;20050;-88
2022/02/24 07:40:06;;;;;;;10.65;4.30;;;;;;;-146.05;100.00;59461.22;4999930;28;20053;-91
2022/02/24 07:42:35;;;;;;;7.65;4.95;;;;;;;-146.05;100.00;59461.22;5000378;28;20058;-90
2022/02/24 07:45:27;;;;;;;7.43;4.65;;;;;;;-146.05;100.00;59461.22;5001627;28;20500;-87
2022/02/24 07:48:11;;;;;;;9.88;5.05;;;;;;;-146.05;100.00;59461.22;5005000;28;20471;-89
2022/02/24 07:51:37;;;;;;;7.10;4.78;;;;;;;-146.05;100.00;59461.22;5029183;28;20053;-88
2022/02/24 07:54:54;;;;;;;9.13;5.05;;;;;;;-146.05;100.00;59461.22;5025533;28;20057;-90
2022/02/24 08:09:16;;;;;;;9.25;5.32;;;;;;;-146.05;100.00;59461.22;5047106;28;20053;-89
2022/02/24 08:12:38;;;;;;;7.22;5.20;;;;;;;-146.05;100.00;59461.22;5045182;28;20084;-88
2022/02/24 08:14:36;;;;;;;12.05;6.47;;;;;;;-146.05;100.00;59461.22;5044647;28;20271;-87
2022/02/24 08:17:14;;;;;;;10.60;4.80;;;;;;;-146.05;100.00;59461.22;5046185;28;20073;-88
2022/02/24 08:19:58;;;;;;;10.18;4.93;;;;;;;-146.05;100.00;59461.22;5045449;28;20053;-83
2022/02/24 08:22:26;;;;;;;10.77;6.07;;;;;;;-146.05;100.00;59461.22;5045940;28;20052;-87
2022/02/24 08:24:55;;;;;;;8.85;5.95;;;;;;;-146.05;100.00;59461.22;5043732;28;20045;-85
2022/02/24 08:27:23;;;;;;;11.13;5.80;;;;;;;-146.05;100.00;59461.22;5044122;28;20046;-89
2022/02/24 08:29:51;;;;;;;9.05;5.60;;;;;;;-146.05;100.00;59461.22;5044827;28;20052;-90
2022/02/24 08:32:20;;;;;;;8.13;5.72;;;;;;;-146.05;100.00;59461.22;5046991;28;20077;-89
2022/02/24 08:34:47;;;;;;;8.80;5.90;;;;;;;-146.05;100.00;59461.22;5046515;28;20400;-86
2022/02/24 08:37:15;;;;;;;8.35;6.22;;;;;;;-146.05;100.00;59461.22;5046171;28;20053;-82
2022/02/24 08:39:43;;;;;;;9.13;5.63;;;;;;;-146.05;100.00;59461.22;5045762;28;20049;-84
2022/02/24 08:42:12;;;;;;;8.90;4.85;;;;;;;-146.05;100.00;59461.22;5046579;28;20049;-84
2022/02/24 08:44:43;;;;;;;10.02;5.25;;;;;;;-146.05;100.00;59461.22;5047339;28;20050;-82
2022/02/24 08:47:31;;;;;;;10.20;5.35;;;;;;;-146.05;100.00;59461.22;5043942;28;20056;-84
2022/02/24 08:49:59;;;;;;;7.47;5.15;;;;;;;-146.05;100.00;59461.22;5044612;28;20054;-82
2022/02/24 08:52:49;;;;;;;7.40;4.97;;;;;;;-146.05;100.00;59461.22;5048044;28;20053;-86
2022/02/24 08:59:51;;;;;;;7.88;4.85;;;;;;;-146.05;100.00;59461.22;5018780;28;20036;-86
2022/02/24 09:02:50;;;;;;;8.25;5.20;;;;;;;-146.05;100.00;59461.22;5045287;28;20125;-85
2022/02/24 09:05:40;;;;;;;8.02;5.60;;;;;;;-146.05;100.00;59461.22;5056435;28;20060;-87
2022/02/24 09:08:12;;;;;;;14.10;5.35;;;;;;;-146.05;100.00;59461.22;5047542;28;20057;-87
2022/02/24 09:10:46;;;;;;;11.88;6.00;;;;;;;-146.05;100.00;59461.22;5045666;28;20049;-86
2022/02/24 09:13:49;;;;;;;13.55;6.90;;;;;;;-146.05;100.00;59461.22;5048841;28;20049;-85
2022/02/24 09:16:19;;;;;;;11.10;7.13;;;;;;;-146.05;100.00;59461.22;5045877;28;20057;-87
2022/02/24 09:18:49;;;;;;;15.32;6.97;;;;;;;-146.05;100.00;59461.22;5055948;28;20053;-90
2022/02/24 09:21:17;;;;;;;9.88;6.70;;;;;;;-146.05;100.00;59461.22;5049700;28;20042;-89
2022/02/24 09:23:45;;;;;;;11.57;6.50;;;;;;;-146.05;100.00;59461.22;5052581;28;20047;-85
2022/02/24 09:26:13;;;;;;;14.35;7.38;;;;;;;-146.05;100.00;59461.22;5053388;28;20422;-82
2022/02/24 09:28:41;;;;;;;14.23;7.53;;;;;;;-146.05;100.00;59461.22;5051782;28;20049;-88
2022/02/24 09:31:09;;;;;;;13.10;8.23;;;;;;;-146.05;100.00;59461.22;5048944;28;20514;-80
2022/02/24 09:33:59;;;;;;;10.40;6.60;;;;;;;-146.05;100.00;59461.22;5048905;28;20053;-83
2022/02/24 09:36:28;;;;;;;14.05;6.90;;;;;;;-146.05;100.00;59461.22;5048368;28;20037;-82
2022/02/24 09:38:59;;;;;;;16.27;7.18;;;;;;;-146.05;100.00;59461.22;5046803;28;20053;-86
2022/02/24 09:41:30;;;;;;;9.73;6.15;;;;;;;-146.05;100.00;59461.22;5046389;28;20049;-84
2022/02/24 09:43:57;;;;;;;13.63;6.40;;;;;;;-146.05;100.00;59461.22;5047731;28;20068;-86
2022/02/24 09:46:27;;;;;;;9.70;5.82;;;;;;;-146.05;100.00;59461.22;5047047;28;20166;-82
2022/02/24 09:49:03;;;;;;;8.95;6.22;;;;;;;-146.05;100.00;59461.22;5047953;28;20077;-85
2022/02/24 09:51:31;;;;;;;10.55;6.15;;;;;;;-146.05;100.00;59461.22;5047747;28;20397;-84
2022/02/24 09:54:01;;;;;;;9.23;5.40;;;;;;;-146.05;100.00;59461.22;5048862;28;20402;-84
2022/02/24 09:56:29;;;;;;;7.50;5.90;;;;;;;-146.05;100.00;59461.22;5047491;28;20045;-85
2022/02/24 09:58:58;;;;;;;14.32;5.15;;;;;;;-146.05;100.00;59461.22;5045449;28;20056;-82
2022/02/24 10:01:26;;;;;;;9.98;5.47;;;;;;;-146.05;100.00;59461.22;5044464;28;20053;-84
2022/02/24 10:03:57;;;;;;;7.55;4.90;;;;;;;-146.05;100.00;59461.22;5044062;28;20050;-86
2022/02/24 10:06:37;;;;;;;8.55;5.20;;;;;;;-146.05;100.00;59461.22;5043590;28;20545;-78
2022/02/24 10:09:07;;;;;;;6.70;4.05;;;;;;;-146.05;100.00;59461.22;5045196;28;20522;-82
2022/02/24 10:11:36;;;;;;;11.05;4.55;;;;;;;-146.05;100.00;59461.22;5044783;28;20048;-83
2022/02/24 10:14:23;;;;;;;7.00;4.38;;;;;;;-146.05;100.00;59461.22;5043793;28;20052;-83
2022/02/24 10:16:56;;;;;;;4.28;2.95;;;;;;;-146.05;100.00;59461.22;5043457;28;20081;-79
2022/02/24 10:19:56;;;;;;;7.35;3.70;;;;;;;-146.05;100.00;59461.22;5042062;28;20486;-80
2022/02/24 10:25:43;;;;;;;1.15;0.93;;;;;;;-146.05;100.00;59461.22;4994597;28;20053;-80
2022/02/24 10:28:33;;;;;;;1.00;0.80;;;;;;;-146.05;100.00;59461.22;5037233;28;20061;-82
2022/02/24 10:31:08;;;;;;;1.50;0.77;;;;;;;-146.05;100.00;59461.22;5033084;28;20054;-83
2022/02/24 10:33:38;;;;;;;4.07;0.82;;;;;;;-146.05;100.00;59461.22;5026432;28;20061;-86
2022/02/24 10:36:17;;;;;;;2.85;0.90;;;;;;;-146.05;100.00;59461.22;5020553;28;20142;-81
2022/02/24 10:38:59;;;;;;;1.92;0.60;;;;;;;-146.05;100.00;59461.22;5019952;28;20128;-87
2022/02/24 10:41:38;;;;;;;1.33;0.60;;;;;;;-146.05;100.00;59461.22;5021605;28;20073;-80
2022/02/24 10:44:19;;;;;;;2.70;0.85;;;;;;;-146.05;100.00;59461.22;5022403;28;20064;-85
2022/02/24 10:47:11;;;;;;;1.05;0.60;;;;;;;-146.05;100.00;59461.22;5022725;28;20053;-80
2022/02/24 10:49:49;;;;;;;3.03;0.73;;;;;;;-146.05;100.00;59461.22;5023081;28;20431;-84
2022/02/24 10:52:29;;;;;;;3.63;0.98;;;;;;;-146.05;100.00;59461.22;5028611;28;20054;-90
2022/02/24 10:55:07;;;;;;;0.75;0.50;;;;;;;-146.05;100.00;59461.22;5031103;28;20109;-88
2022/02/24 10:57:42;;;;;;;1.35;0.60;;;;;;;-146.05;100.00;59461.22;5031705;28;20050;-89
2022/02/24 11:00:22;;;;;;;3.15;0.68;;;;;;;-146.05;100.00;59461.22;5033647;28;20049;-89
2022/02/24 11:02:51;;;;;;;2.80;0.80;;;;;;;-146.05;100.00;59461.22;5028801;28;20067;-90
2022/02/24 11:05:19;;;;;;;1.20;0.50;;;;;;;-146.05;100.00;59461.22;5029125;28;20056;-90
2022/02/24 11:07:48;;;;;;;2.75;1.30;;;;;;;-146.05;100.00;59461.22;5028908;28;20136;-90
2022/02/24 11:10:19;;;;;;;4.32;0.70;;;;;;;-146.05;100.00;59461.22;5027240;28;20046;-89
2022/02/24 11:12:48;;;;;;;2.90;0.50;;;;;;;-146.05;100.00;59461.22;5028422;28;20042;-91
2022/02/24 11:15:22;;;;;;;7.35;0.90;;;;;;;-146.05;100.00;59461.22;5037161;28;20069;-89
2022/02/24 11:17:54;;;;;;;1.90;0.70;;;;;;;-146.05;100.00;59461.22;5026415;28;20081;-88
2022/02/24 11:20:28;;;;;;;2.15;0.70;;;;;;;-146.05;100.00;59461.22;5025121;28;20054;-90
2022/02/24 11:23:14;;;;;;;3.55;0.68;;;;;;;-146.05;100.00;59461.22;5026260;28;20415;-88
2022/02/24 11:26:20;;;;;;;1.35;0.80;;;;;;;-146.05;100.00;59461.22;5024462;28;20101;-88
2022/02/24 11:28:58;;;;;;;2.40;0.90;;;;;;;-146.05;100.00;59461.22;5023740;28;20058;-82
2022/02/24 11:31:49;;;;;;;1.83;0.75;;;;;;;-146.05;100.00;59461.22;5025344;28;20050;-85
2022/02/24 11:34:18;;;;;;;0.90;0.50;;;;;;;-146.05;100.00;59461.22;5023651;28;20053;-84
2022/02/24 11:36:55;;;;;;;1.92;0.70;;;;;;;-146.05;100.00;59461.22;5022306;28;20056;-86
2022/02/24 11:39:25;;;;;;;2.03;0.80;;;;;;;-146.05;100.00;59461.22;5022993;28;20124;-86
2022/02/24 11:42:02;;;;;;;3.65;1.00;;;;;;;-146.05;100.00;59461.22;5025853;28;20042;-82
2022/02/24 11:44:35;;;;;;;1.83;1.00;;;;;;;-146.05;100.00;59461.22;5025819;28;20058;-87
2022/02/24 11:47:22;;;;;;;2.53;1.15;;;;;;;-146.05;100.00;59461.22;5025224;28;20056;-87
2022/02/24 11:50:10;;;;;;;5.80;1.05;;;;;;;-146.05;100.00;59461.22;5025001;28;20492;-84